Time;durP1;ratioP1;P1;durP2;ratioP2;P2;SDS_P1;SDS_P2;PMS_P1;PMS_P2;Temp;Humidity;BMP_temperature;BMP_pressure;BME280_temperature;BME280_humidity;BME280_pressure;Samples;Min_cycle;Max_cycle;Signal;HPM_P1;HPM_P2
2021/11/10 00:01:03;;;;;;;1.00;0.77;;;21.10;30.20;21.50;94648.00;;;;10439321;28;46124;-63
2021/11/10 00:06:03;;;;;;;1.20;0.70;;;21.10;30.20;21.50;94624.00;;;;10454151;28;48351;-62
2021/11/10 00:11:04;;;;;;;1.15;0.70;;;21.00;30.20;21.50;94623.00;;;;10454725;28;47931;-62
2021/11/10 00:16:05;;;;;;;1.52;0.90;;;21.00;30.30;21.50;94619.00;;;;10437384;28;45343;-62
2021/11/10 00:21:06;;;;;;;0.95;0.60;;;21.00;30.30;21.50;94635.00;;;;10420524;28;46939;-63
2021/11/10 00:26:06;;;;;;;1.38;0.90;;;21.00;30.40;21.50;94612.00;;;;10437149;28;45271;-63
2021/11/10 00:31:07;;;;;;;1.20;0.70;;;21.00;30.40;21.50;94579.00;;;;10437435;28;45301;-63
2021/11/10 00:36:09;;;;;;;1.55;0.70;;;21.00;30.40;21.50;94594.00;;;;10436746;28;46281;-62
2021/11/10 00:41:10;;;;;;;1.73;0.75;;;21.00;30.40;21.50;94561.00;;;;10436811;28;45345;-63
2021/11/10 00:46:11;;;;;;;1.75;0.90;;;21.00;30.40;21.50;94535.00;;;;10419510;28;47104;-62
2021/11/10 00:51:12;;;;;;;2.30;0.93;;;21.00;30.40;21.50;94521.00;;;;10419777;28;47113;-63
2021/11/10 00:56:12;;;;;;;1.45;0.80;;;21.00;30.40;21.50;94491.00;;;;10437420;28;45619;-63
2021/11/10 01:01:13;;;;;;;1.35;0.90;;;21.00;30.40;21.50;94480.00;;;;10436124;28;45494;-62
2021/11/10 01:06:14;;;;;;;1.40;0.75;;;21.00;30.50;21.50;94467.00;;;;10435480;28;45653;-62
2021/11/10 01:11:15;;;;;;;1.00;0.60;;;21.00;30.50;21.50;94460.00;;;;10419353;28;47403;-62
2021/11/10 01:16:16;;;;;;;1.27;0.85;;;21.00;30.50;21.50;94485.00;;;;10437314;28;45466;-62
2021/11/10 01:21:18;;;;;;;1.63;0.90;;;21.00;30.50;21.50;94459.00;;;;10436802;28;46277;-62
2021/11/10 01:26:19;;;;;;;1.55;0.82;;;21.00;30.60;21.50;94508.00;;;;10434488;28;45157;-63
2021/11/10 01:31:20;;;;;;;0.90;0.60;;;21.00;30.60;21.50;94495.00;;;;10436654;28;45308;-63
2021/11/10 01:36:21;;;;;;;0.80;0.70;;;21.00;30.60;21.50;94505.00;;;;10418326;28;47017;-63
2021/11/10 01:41:21;;;;;;;1.40;0.70;;;21.00;30.60;21.50;94506.00;;;;10418414;28;47159;-63
2021/11/10 01:46:22;;;;;;;1.00;0.70;;;21.00;30.60;21.50;94506.00;;;;10417986;28;47176;-62
2021/11/10 01:51:24;;;;;;;0.75;0.55;;;21.00;30.60;21.50;94510.00;;;;10417781;28;46838;-62
2021/11/10 01:56:25;;;;;;;0.63;0.50;;;21.00;30.70;21.50;94504.00;;;;10433945;28;45495;-63
2021/11/10 02:01:26;;;;;;;0.93;0.50;;;21.00;30.70;21.50;94515.00;;;;10432318;22;46639;-63
2021/11/10 02:06:26;;;;;;;0.82;0.55;;;21.00;30.70;21.50;94519.00;;;;10395109;28;46903;-64
2021/11/10 02:11:27;;;;;;;1.50;0.70;;;21.00;30.70;21.50;94517.00;;;;10393922;28;47109;-64
2021/11/10 02:16:28;;;;;;;0.82;0.70;;;20.90;30.70;21.40;94495.00;;;;10391484;28;45528;-63
2021/11/10 02:21:31;;;;;;;0.60;0.50;;;20.90;30.80;21.40;94480.00;;;;10375511;28;46898;-64
2021/11/10 02:26:31;;;;;;;0.68;0.43;;;21.00;30.80;21.40;94463.00;;;;10391553;28;47636;-64
2021/11/10 02:31:34;;;;;;;1.20;0.60;;;21.00;30.90;21.50;94461.00;;;;10392431;28;45534;-64
2021/11/10 02:36:36;;;;;;;0.85;0.70;;;20.90;30.80;21.40;94483.00;;;;10390367;28;45385;-63
2021/11/10 02:41:38;;;;;;;1.23;0.55;;;20.90;30.90;21.40;94422.00;;;;10390573;28;45288;-64
2021/11/10 02:46:39;;;;;;;0.80;0.60;;;20.90;30.90;21.50;94418.00;;;;10374804;28;46698;-64
2021/11/10 02:52:06;;;;;;;1.00;0.60;;;20.90;30.90;21.50;94433.00;;;;10354568;28;45270;-64
2021/11/10 02:57:08;;;;;;;0.98;0.65;;;20.90;30.90;21.50;94422.00;;;;10332460;28;47105;-65
2021/11/10 03:02:09;;;;;;;0.52;0.50;;;20.90;30.90;21.50;94414.00;;;;10348569;28;47019;-64
2021/11/10 03:07:11;;;;;;;0.95;0.60;;;20.90;30.90;21.50;94394.00;;;;10363156;28;45259;-64
2021/11/10 03:12:14;;;;;;;0.40;0.40;;;20.90;30.90;21.50;94381.00;;;;10390688;28;45511;-64
2021/11/10 03:17:17;;;;;;;0.80;0.45;;;21.00;31.00;21.50;94366.00;;;;10389957;28;45398;-64
2021/11/10 03:22:18;;;;;;;0.70;0.43;;;20.90;30.90;21.50;94374.00;;;;10389920;28;45552;-64
2021/11/10 03:27:19;;;;;;;0.63;0.40;;;20.90;31.00;21.50;94373.00;;;;10389851;28;46403;-63
2021/11/10 03:32:22;;;;;;;0.80;0.52;;;21.00;31.00;21.50;94400.00;;;;10397048;28;45374;-63
2021/11/10 03:37:22;;;;;;;0.63;0.52;;;20.90;31.70;21.50;94397.00;;;;10396524;28;45432;-64
2021/11/10 03:42:23;;;;;;;0.60;0.52;;;20.90;31.00;21.40;94403.00;;;;10378174;28;48407;-63
2021/11/10 03:47:25;;;;;;;0.63;0.38;;;20.90;31.00;21.40;94418.00;;;;10390775;28;46499;-64
2021/11/10 03:52:25;;;;;;;1.02;0.50;;;20.90;31.00;21.40;94427.00;;;;10336971;28;47132;-64
2021/11/10 03:57:26;;;;;;;0.85;0.55;;;21.00;31.00;21.40;94413.00;;;;10353340;28;47091;-63
2021/11/10 04:02:27;;;;;;;0.98;0.55;;;20.90;31.00;21.40;94438.00;;;;10355360;28;48032;-63
2021/11/10 04:07:27;;;;;;;0.85;0.40;;;20.90;31.00;21.40;94427.00;;;;10371986;28;45794;-64
2021/11/10 04:12:28;;;;;;;0.93;0.50;;;20.90;31.00;21.40;94441.00;;;;10397074;28;45176;-64
2021/11/10 04:17:29;;;;;;;0.77;0.55;;;20.90;31.00;21.50;94444.00;;;;10396859;28;45529;-62
2021/11/10 04:22:29;;;;;;;0.70;0.50;;;20.90;31.00;21.40;94410.00;;;;10395101;28;46549;-64
2021/11/10 04:27:30;;;;;;;0.70;0.43;;;20.90;31.00;21.50;94426.00;;;;10393489;28;48320;-64
2021/11/10 04:32:31;;;;;;;0.50;0.38;;;20.90;31.10;21.40;94412.00;;;;10378175;28;47495;-64
2021/11/10 04:37:32;;;;;;;0.47;0.40;;;21.00;31.20;21.40;94415.00;;;;10378251;28;46857;-63
2021/11/10 04:42:33;;;;;;;0.50;0.50;;;20.90;31.10;21.50;94427.00;;;;10393439;28;45305;-63
2021/11/10 04:47:35;;;;;;;0.90;0.50;;;20.90;31.10;21.50;94424.00;;;;10394329;28;47845;-64
2021/11/10 04:52:37;;;;;;;0.63;0.50;;;21.00;31.20;21.50;94410.00;;;;10395773;28;45463;-64
2021/11/10 04:57:38;;;;;;;0.30;0.30;;;20.90;31.10;21.50;94413.00;;;;10393595;28;45345;-62
2021/11/10 05:02:39;;;;;;;0.77;0.50;;;20.90;31.20;21.50;94434.00;;;;10394134;28;45322;-64
2021/11/10 05:07:40;;;;;;;0.50;0.40;;;20.90;31.20;21.50;94422.00;;;;10374693;28;46532;-64
2021/11/10 05:12:41;;;;;;;1.83;0.40;;;20.90;31.20;21.60;94411.00;;;;10335669;28;46650;-63
2021/11/10 05:17:41;;;;;;;0.75;0.43;;;21.00;31.20;21.60;94403.00;;;;10334874;28;47112;-64
2021/11/10 05:22:42;;;;;;;0.47;0.40;;;21.10;31.20;21.70;94377.00;;;;10351453;28;45596;-64
2021/11/10 05:27:43;;;;;;;0.50;0.40;;;21.20;31.20;21.80;94370.00;;;;10335524;28;47324;-64
2021/11/10 05:32:44;;;;;;;0.77;0.30;;;21.30;31.20;21.90;94381.00;;;;10353339;28;46256;-64
2021/11/10 05:37:45;;;;;;;0.70;0.40;;;21.30;31.10;21.90;94376.00;;;;10333774;28;46902;-64
2021/11/10 05:42:46;;;;;;;0.40;0.40;;;21.40;31.00;21.90;94378.00;;;;10352059;28;45326;-64
2021/11/10 05:47:46;;;;;;;0.55;0.47;;;21.40;31.00;21.90;94364.00;;;;10358125;28;45418;-64
2021/11/10 05:52:48;;;;;;;0.40;0.32;;;21.40;31.00;21.90;94385.00;;;;10393385;28;45211;-64
2021/11/10 05:57:49;;;;;;;0.40;0.25;;;21.40;31.00;21.90;94364.00;;;;10349286;28;46994;-64
2021/11/10 06:02:51;;;;;;;0.63;0.50;;;21.40;31.00;21.80;94376.00;;;;10365092;28;47417;-65
2021/11/10 06:07:51;;;;;;;0.40;0.40;;;21.30;31.00;21.80;94370.00;;;;10392140;28;45389;-63
2021/11/10 06:12:52;;;;;;;0.40;0.25;;;21.30;31.00;21.70;94360.00;;;;10391425;28;45298;-64
2021/11/10 06:17:53;;;;;;;0.50;0.40;;;21.30;31.10;21.70;94353.00;;;;10391441;28;47596;-63
2021/11/10 06:22:53;;;;;;;0.30;0.30;;;21.20;31.10;21.70;94366.00;;;;10374705;28;47230;-64
2021/11/10 06:27:54;;;;;;;0.30;0.30;;;21.20;31.20;21.70;94383.00;;;;10389603;28;45532;-64
2021/11/10 06:32:55;;;;;;;0.47;0.40;;;21.20;31.20;21.80;94395.00;;;;10391463;28;45538;-64
2021/11/10 06:37:56;;;;;;;0.30;0.30;;;21.30;31.20;21.80;94385.00;;;;10390690;28;45226;-63
2021/11/10 06:42:56;;;;;;;0.30;0.30;;;21.30;31.20;21.90;94393.00;;;;10374182;28;47054;-64
2021/11/10 06:47:57;;;;;;;0.68;0.40;;;21.40;31.20;21.90;94378.00;;;;10384324;28;46424;-64
2021/11/10 06:52:58;;;;;;;0.38;0.30;;;21.40;31.20;22.00;94370.00;;;;10351055;28;45445;-64
2021/11/10 06:57:58;;;;;;;0.40;0.30;;;21.40;31.10;22.00;94375.00;;;;10333177;28;47093;-64
2021/11/10 07:02:59;;;;;;;0.40;0.38;;;21.40;31.10;22.00;94367.00;;;;10350781;28;45290;-64
2021/11/10 07:08:00;;;;;;;0.68;0.45;;;21.50;31.10;22.00;94382.00;;;;10378160;28;45473;-63
2021/11/10 07:13:01;;;;;;;0.30;0.30;;;21.40;31.00;22.00;94366.00;;;;10356630;28;47236;-64
2021/11/10 07:18:02;;;;;;;0.45;0.30;;;21.40;31.10;21.90;94392.00;;;;10358230;28;47003;-65
2021/11/10 07:23:03;;;;;;;0.38;0.35;;;21.40;31.10;21.90;94397.00;;;;10397853;28;47345;-64
2021/11/10 07:28:04;;;;;;;0.40;0.40;;;21.40;31.10;21.90;94408.00;;;;10397553;28;45333;-63
2021/11/10 07:33:05;;;;;;;0.50;0.47;;;21.40;31.10;21.80;94420.00;;;;10399503;28;45373;-63
2021/11/10 07:38:06;;;;;;;2.65;1.15;;;21.40;31.20;21.70;94418.00;;;;10397049;28;45398;-62
2021/11/10 07:43:07;;;;;;;2.65;1.10;;;21.30;29.00;21.60;94434.00;;;;10397804;28;47355;-62
2021/11/10 07:48:09;;;;;;;2.50;1.30;;;21.20;29.30;21.50;94441.00;;;;10373819;28;45257;-62
2021/11/10 07:53:10;;;;;;;2.05;1.25;;;21.10;29.20;21.40;94438.00;;;;10354337;28;46722;-62
2021/11/10 07:58:10;;;;;;;3.67;1.20;;;21.10;29.20;21.50;94424.00;;;;10396418;28;45327;-62
2021/11/10 08:03:11;;;;;;;1.90;1.15;;;21.00;29.00;21.50;94426.00;;;;10396607;28;45665;-63
2021/11/10 08:08:12;;;;;;;1.75;1.15;;;21.00;28.90;21.50;94428.00;;;;10395505;28;45340;-63
2021/11/10 08:13:14;;;;;;;1.92;1.40;;;21.00;28.90;21.50;94434.00;;;;10395836;28;45379;-63
2021/11/10 08:18:15;;;;;;;2.70;1.50;;;21.10;28.90;21.40;94432.00;;;;10378039;28;48019;-63
2021/11/10 08:23:20;;;;;;;3.55;1.60;;;21.00;28.70;21.50;94437.00;;;;10395626;28;45477;-62
2021/11/10 08:28:21;;;;;;;2.13;1.10;;;21.00;28.70;21.50;94441.00;;;;10364201;28;47332;-65
2021/11/10 08:33:22;;;;;;;3.28;1.60;;;21.00;28.70;21.50;94429.00;;;;10394975;28;46472;-63
2021/11/10 08:38:28;;;;;;;4.18;2.08;;;21.00;28.40;21.50;94444.00;;;;10345732;28;48347;-63
2021/11/10 08:43:29;;;;;;;6.70;1.95;;;21.10;28.70;21.50;94451.00;;;;10372856;28;45313;-64
2021/11/10 08:48:29;;;;;;;5.57;2.78;;;21.00;28.30;21.40;94435.00;;;;10393712;28;46377;-68
2021/11/10 08:53:32;;;;;;;5.03;2.22;;;21.00;27.90;21.50;94438.00;;;;10393473;28;47975;-63
2021/11/10 08:58:32;;;;;;;8.68;3.88;;;21.00;28.20;21.40;94434.00;;;;10392571;28;45621;-64
2021/11/10 09:03:33;;;;;;;10.93;3.85;;;21.00;27.30;21.20;94436.00;;;;10367246;28;45277;-63
2021/11/10 09:08:34;;;;;;;7.32;3.28;;;20.90;26.80;21.40;94425.00;;;;10378600;28;45533;-64
2021/11/10 09:13:35;;;;;;;7.82;3.35;;;20.90;27.80;21.40;94417.00;;;;10393492;28;45236;-64
2021/11/10 09:18:35;;;;;;;6.15;2.80;;;20.90;27.20;21.30;94428.00;;;;10392452;28;45267;-64
2021/11/10 09:23:37;;;;;;;4.53;2.50;;;20.90;26.90;21.30;94444.00;;;;10393997;28;45585;-64
2021/11/10 09:28:37;;;;;;;3.95;2.13;;;20.80;27.10;21.20;94419.00;;;;10392216;28;45652;-64
2021/11/10 09:33:43;;;;;;;4.53;2.50;;;20.80;27.60;21.20;94456.00;;;;10394313;28;46196;-64
2021/11/10 09:38:46;;;;;;;4.20;2.38;;;20.80;27.60;21.20;94446.00;;;;10356039;28;47697;-64
2021/11/10 09:43:47;;;;;;;4.45;2.15;;;20.80;27.80;21.20;94461.00;;;;10352770;28;45463;-62
2021/11/10 09:48:48;;;;;;;3.75;1.75;;;20.80;27.80;21.30;94453.00;;;;10359628;28;45202;-64
2021/11/10 09:53:49;;;;;;;3.00;1.85;;;20.80;28.10;21.40;94462.00;;;;10391970;28;45214;-61
2021/11/10 09:58:51;;;;;;;3.60;2.20;;;20.90;28.20;21.30;94469.00;;;;10389895;28;45744;-62
2021/11/10 10:03:53;;;;;;;4.95;2.50;;;20.90;28.10;21.30;94472.00;;;;10392266;28;45513;-61
2021/11/10 10:08:54;;;;;;;20.73;8.02;;;20.90;28.10;21.30;94475.00;;;;10363327;28;45310;-62
2021/11/10 10:13:56;;;;;;;14.95;6.60;;;20.90;28.20;21.30;94460.00;;;;10350170;28;45938;-62
2021/11/10 10:19:09;;;;;;;24.77;8.93;;;20.80;28.40;21.30;94449.00;;;;10349413;28;45729;-62
2021/11/10 10:24:14;;;;;;;23.02;9.73;;;20.90;28.50;21.30;94447.00;;;;10349900;28;45169;-64
2021/11/10 10:29:15;;;;;;;19.63;8.27;;;20.80;28.50;21.30;94442.00;;;;10349665;28;48397;-64
2021/11/10 10:34:18;;;;;;;29.92;9.25;;;20.90;28.70;21.30;94428.00;;;;10349982;28;48148;-64
2021/11/10 10:39:20;;;;;;;24.70;9.75;;;20.80;28.80;21.30;94420.00;;;;10391276;28;45326;-64
2021/11/10 10:44:24;;;;;;;22.48;8.25;;;20.80;28.90;21.30;94417.00;;;;10374716;28;47007;-64
2021/11/10 10:49:43;;;;;;;16.15;6.20;;;20.90;29.00;21.30;94435.00;;;;10369687;28;45253;-64
2021/11/10 10:54:48;;;;;;;14.75;5.63;;;20.80;29.00;21.30;94441.00;;;;10349028;28;45222;-62
2021/11/10 11:00:10;;;;;;;11.35;4.57;;;20.90;29.00;21.30;94439.00;;;;10348180;28;45386;-63
2021/11/10 11:05:40;;;;;;;9.23;4.65;;;20.90;29.90;21.30;94436.00;;;;10349255;28;45599;-63
2021/11/10 11:10:40;;;;;;;7.28;3.65;;;20.90;30.00;21.30;94447.00;;;;10350012;28;46250;-62
2021/11/10 11:16:07;;;;;;;9.18;3.58;;;20.90;30.00;21.30;94428.00;;;;10349014;28;45310;-62
2021/11/10 11:21:25;;;;;;;;;;;20.90;30.20;21.40;94433.00;;;;10333416;28;47104;-62
2021/11/10 11:26:38;;;;;;;9.68;2.75;;;20.90;31.00;21.40;94425.00;;;;10348498;28;48142;-63
2021/11/10 11:31:39;;;;;;;8.63;2.35;;;20.90;30.90;21.40;94406.00;;;;10348889;28;45403;-62
2021/11/10 11:36:55;;;;;;;7.25;2.53;;;20.90;31.20;21.40;94425.00;;;;10367336;28;46125;-63
2021/11/10 11:41:56;;;;;;;5.55;2.53;;;21.00;31.80;21.40;94413.00;;;;10389465;28;45361;-63
2021/11/10 11:46:57;;;;;;;5.80;2.20;;;21.00;32.10;21.40;94429.00;;;;10388774;28;47092;-62
2021/11/10 11:51:58;;;;;;;6.38;2.10;;;21.00;32.90;21.40;94449.00;;;;10354735;28;46827;-64
2021/11/10 11:57:01;;;;;;;9.30;3.00;;;20.90;33.00;21.40;94441.00;;;;10354178;28;45456;-63
2021/11/10 12:02:23;;;;;;;7.57;3.42;;;20.90;34.30;21.40;94440.00;;;;10354288;28;46969;-63
2021/11/10 12:07:56;;;;;;;5.57;2.92;;;20.90;34.00;21.40;94421.00;;;;10371194;28;45394;-64
2021/11/10 12:13:20;;;;;;;6.43;2.97;;;20.90;33.50;21.40;94404.00;;;;10395065;28;46994;-63
2021/11/10 12:18:21;;;;;;;8.55;4.00;;;20.90;33.50;21.40;94381.00;;;;10395886;28;46008;-64
2021/11/10 12:23:22;;;;;;;7.28;3.90;;;20.90;32.90;21.40;94382.00;;;;10395284;28;47049;-61
2021/11/10 12:28:50;;;;;;;9.05;3.97;;;20.90;32.80;21.40;94373.00;;;;10394964;28;47237;-61
2021/11/10 12:33:51;;;;;;;8.57;3.63;;;20.90;33.10;21.40;94381.00;;;;10395533;28;46498;-62
2021/11/10 12:38:59;;;;;;;13.15;4.85;;;20.90;33.10;21.40;94392.00;;;;10394332;28;45293;-64
2021/11/10 12:44:00;;;;;;;13.68;5.55;;;20.90;33.40;21.40;94385.00;;;;10394778;28;46632;-62
2021/11/10 12:49:14;;;;;;;10.68;4.50;;;20.90;32.80;21.30;94384.00;;;;10392046;28;45364;-62
2021/11/10 12:54:25;;;;;;;8.27;4.25;;;20.90;32.80;21.30;94374.00;;;;10354217;28;47268;-64
2021/11/10 12:59:33;;;;;;;7.53;4.57;;;20.90;32.50;21.40;94373.00;;;;10370038;28;47295;-64
2021/11/10 13:04:34;;;;;;;9.68;4.40;;;20.90;32.30;21.30;94378.00;;;;10369542;28;47305;-61
2021/11/10 13:09:35;;;;;;;9.82;3.90;;;20.90;32.50;21.30;94359.00;;;;10390354;28;45508;-64
2021/11/10 13:14:46;;;;;;;6.50;2.75;;;20.90;32.50;21.40;94376.00;;;;10392583;28;46529;-64
2021/11/10 13:19:55;;;;;;;6.55;3.10;;;20.90;32.90;21.40;94367.00;;;;10387704;28;45202;-62
2021/11/10 13:24:59;;;;;;;5.43;2.30;;;20.90;33.40;21.40;94349.00;;;;10372919;28;45347;-61
2021/11/10 13:30:04;;;;;;;4.97;2.53;;;20.90;34.00;21.40;94360.00;;;;10352308;28;45871;-63
2021/11/10 13:35:05;;;;;;;8.10;2.47;;;20.90;33.70;21.40;94360.00;;;;10334213;28;47263;-63
2021/11/10 13:40:07;;;;;;;4.30;2.05;;;21.00;34.20;21.50;94360.00;;;;10334258;28;47235;-63
2021/11/10 13:45:16;;;;;;;5.65;1.90;;;21.00;34.30;21.50;94364.00;;;;10350997;28;45311;-63
2021/11/10 13:50:17;;;;;;;6.25;1.98;;;21.00;34.30;21.50;94355.00;;;;10361093;28;48074;-63
2021/11/10 13:55:17;;;;;;;3.28;1.80;;;21.10;34.50;21.50;94353.00;;;;10391591;28;47076;-63
2021/11/10 14:00:19;;;;;;;3.00;1.60;;;21.10;34.50;21.50;94336.00;;;;10363667;28;45295;-63
2021/11/10 14:05:23;;;;;;;3.28;1.70;;;21.10;34.30;21.60;94334.00;;;;10351088;28;47138;-63
2021/11/10 14:10:33;;;;;;;3.38;1.60;;;21.10;34.50;21.50;94339.00;;;;10352097;28;45318;-63
2021/11/10 14:15:39;;;;;;;4.13;1.80;;;21.10;34.80;21.60;94353.00;;;;10349833;28;45348;-63
2021/11/10 14:20:56;;;;;;;3.75;1.52;;;21.10;34.40;21.60;94365.00;;;;10350437;28;47298;-63
2021/11/10 14:26:02;;;;;;;3.92;1.63;;;21.10;34.60;21.60;94364.00;;;;10350656;28;45552;-64
2021/11/10 14:31:10;;;;;;;;;;;21.10;34.70;21.60;94362.00;;;;10351152;28;46835;-64
2021/11/10 14:36:16;;;;;;;3.97;1.73;;;21.10;34.40;21.60;94377.00;;;;10352494;28;45467;-64
2021/11/10 14:41:20;;;;;;;2.27;1.30;;;21.10;34.60;21.60;94377.00;;;;10350933;28;45338;-64
2021/11/10 14:46:37;;;;;;;4.10;1.80;;;21.10;34.60;21.60;94378.00;;;;10350470;28;47207;-64
2021/11/10 14:52:00;;;;;;;4.22;1.73;;;21.10;34.40;21.50;94377.00;;;;10358553;28;45599;-63
2021/11/10 14:57:08;;;;;;;4.75;2.30;;;21.10;35.00;21.50;94381.00;;;;10389829;28;46221;-62
2021/11/10 15:02:11;;;;;;;10.93;4.10;;;21.10;34.60;21.50;94377.00;;;;10349638;28;46860;-61
2021/11/10 15:07:14;;;;;;;9.13;3.95;;;21.10;33.30;21.50;94369.00;;;;10350660;28;45364;-62
2021/11/10 15:12:22;;;;;;;8.52;5.03;;;21.00;33.10;21.50;94372.00;;;;10350280;28;45548;-62
2021/11/10 15:17:32;;;;;;;7.63;4.50;;;21.00;33.10;21.40;94358.00;;;;10349532;28;45859;-62
2021/11/10 15:23:09;;;;;;;8.45;4.78;;;20.90;33.10;21.40;94355.00;;;;10349331;28;46022;-62
2021/11/10 15:28:13;;;;;;;;;;;20.90;33.20;21.30;94357.00;;;;10356211;28;45558;-62
2021/11/10 15:33:16;;;;;;;6.65;3.85;;;20.90;33.10;21.30;94361.00;;;;10356768;28;45157;-61
2021/11/10 15:38:23;;;;;;;5.35;3.50;;;20.90;33.10;21.40;94359.00;;;;10356281;28;45244;-62
2021/11/10 15:43:26;;;;;;;6.97;3.95;;;20.90;33.90;21.40;94365.00;;;;10356419;28;45408;-62
2021/11/10 15:48:27;;;;;;;7.63;4.03;;;20.90;33.20;21.40;94368.00;;;;10367658;28;47012;-62
2021/11/10 15:53:29;;;;;;;13.18;5.65;;;20.90;33.40;21.40;94383.00;;;;10380473;28;47303;-62
2021/11/10 15:58:31;;;;;;;12.00;5.50;;;20.90;33.70;21.40;94354.00;;;;10395835;28;45223;-64
2021/11/10 16:03:40;;;;;;;11.85;7.10;;;21.00;33.10;21.40;94351.00;;;;10379412;28;47945;-64
2021/11/10 16:08:42;;;;;;;9.38;5.93;;;20.90;33.30;21.40;94365.00;;;;10397246;28;45371;-65
2021/11/10 16:13:43;;;;;;;13.15;5.35;;;20.90;33.30;21.40;94357.00;;;;10392741;28;45565;-65
2021/11/10 16:18:44;;;;;;;8.98;4.75;;;21.00;33.10;21.40;94335.00;;;;10392443;28;47310;-64
2021/11/10 16:23:45;;;;;;;8.25;4.45;;;21.00;33.30;21.50;94359.00;;;;10396514;28;46227;-65
2021/11/10 16:28:55;;;;;;;9.88;4.30;;;21.00;33.20;21.50;94349.00;;;;10379079;28;47760;-65
2021/11/10 16:33:56;;;;;;;6.68;3.80;;;21.00;33.40;21.50;94361.00;;;;10380297;28;46894;-64
2021/11/10 16:38:57;;;;;;;6.88;3.42;;;21.00;33.50;21.50;94351.00;;;;10395172;28;46158;-64
2021/11/10 16:43:58;;;;;;;7.05;3.53;;;21.00;33.40;21.50;94350.00;;;;10396608;28;45221;-65
2021/11/10 16:48:58;;;;;;;6.15;3.30;;;21.00;33.40;21.50;94343.00;;;;10378370;28;46920;-65
2021/11/10 16:53:59;;;;;;;6.93;3.05;;;21.00;33.50;21.50;94330.00;;;;10353954;28;45398;-61
2021/11/10 16:59:01;;;;;;;6.35;3.00;;;21.10;33.40;21.50;94346.00;;;;10371116;28;45381;-65
2021/11/10 17:04:03;;;;;;;6.03;2.80;;;21.10;33.70;21.50;94357.00;;;;10395771;28;46080;-63
2021/11/10 17:09:04;;;;;;;5.32;2.92;;;21.10;33.70;21.50;94355.00;;;;10394936;28;45410;-62
2021/11/10 17:14:06;;;;;;;9.85;4.88;;;21.10;33.00;21.40;94364.00;;;;10394838;28;46467;-62
2021/11/10 17:19:07;;;;;;;12.88;5.60;;;21.00;32.90;21.50;94333.00;;;;10394152;28;46473;-62
2021/11/10 17:24:08;;;;;;;11.45;6.20;;;21.00;32.70;21.40;94352.00;;;;10394401;28;47067;-63
2021/11/10 17:29:09;;;;;;;11.02;5.72;;;21.00;32.20;21.40;94350.00;;;;10393833;28;45186;-63
2021/11/10 17:34:10;;;;;;;8.30;4.95;;;21.00;32.10;21.40;94354.00;;;;10377028;28;47379;-63
2021/11/10 17:39:10;;;;;;;6.88;4.22;;;21.00;32.20;21.50;94353.00;;;;10392982;28;48352;-64
2021/11/10 17:44:11;;;;;;;8.70;4.32;;;21.00;32.40;21.40;94358.00;;;;10377407;28;46567;-63
2021/11/10 17:49:11;;;;;;;6.57;3.92;;;21.00;32.30;21.50;94356.00;;;;10393140;28;45208;-62
2021/11/10 17:54:12;;;;;;;6.75;3.58;;;21.00;32.30;21.50;94362.00;;;;10394205;28;46233;-61
2021/11/10 17:59:13;;;;;;;5.75;3.70;;;21.00;32.30;21.50;94350.00;;;;10374497;28;45276;-63
2021/11/10 18:04:14;;;;;;;6.70;3.53;;;21.00;32.00;21.50;94342.00;;;;10335520;28;48125;-63
2021/11/10 18:09:14;;;;;;;5.35;3.28;;;21.00;31.90;21.50;94340.00;;;;10383689;28;45315;-66
2021/11/10 18:14:15;;;;;;;6.63;3.10;;;21.00;31.40;21.50;94337.00;;;;10386162;28;46456;-63
2021/11/10 18:19:16;;;;;;;5.97;3.38;;;21.00;32.00;21.50;94326.00;;;;10349925;28;45294;-62
2021/11/10 18:24:17;;;;;;;4.20;2.83;;;21.10;32.20;21.60;94330.00;;;;10350404;28;46932;-62
2021/11/10 18:29:19;;;;;;;3.75;2.35;;;21.10;31.80;21.50;94333.00;;;;10350080;28;46822;-63
2021/11/10 18:34:20;;;;;;;4.30;2.80;;;21.10;31.90;21.50;94336.00;;;;10351731;28;45603;-63
2021/11/10 18:39:21;;;;;;;4.78;2.55;;;21.10;32.00;21.50;94355.00;;;;10365990;28;47177;-62
2021/11/10 18:44:21;;;;;;;6.75;2.50;;;21.10;32.00;21.50;94357.00;;;;10351959;28;45205;-63
2021/11/10 18:49:22;;;;;;;4.60;2.60;;;21.10;31.90;21.50;94345.00;;;;10369236;28;45214;-62
2021/11/10 18:54:23;;;;;;;3.78;2.47;;;21.10;31.70;21.60;94358.00;;;;10391044;28;46402;-62
2021/11/10 18:59:26;;;;;;;5.35;2.50;;;21.10;31.90;21.60;94356.00;;;;10389433;28;46309;-63
2021/11/10 19:04:38;;;;;;;3.17;2.22;;;21.10;31.80;21.60;94351.00;;;;10373677;28;45448;-63
2021/11/10 19:20:12;;;;;;;3.43;2.27;;;21.10;31.80;21.50;94344.00;;;;10391260;28;45503;-63
2021/11/10 19:25:15;;;;;;;4.10;2.45;;;21.10;31.70;21.50;94343.00;;;;10391455;28;45185;-63
2021/11/10 19:30:20;;;;;;;3.92;2.20;;;21.10;31.80;21.50;94315.00;;;;10373567;28;47145;-63
2021/11/10 19:35:21;;;;;;;4.30;2.03;;;21.10;31.70;21.50;94327.00;;;;10373820;28;47220;-63
2021/11/10 19:40:22;;;;;;;4.43;2.00;;;21.10;31.60;21.50;94338.00;;;;10373227;28;47416;-63
2021/11/10 19:45:24;;;;;;;3.45;1.90;;;21.10;31.80;21.50;94330.00;;;;10368925;28;47442;-63
2021/11/10 19:50:35;;;;;;;3.92;1.90;;;21.10;31.60;21.50;94340.00;;;;10389519;28;46646;-63
2021/11/10 19:55:38;;;;;;;3.05;1.80;;;21.10;32.40;21.50;94326.00;;;;10353886;28;45314;-63
2021/11/10 20:00:49;;;;;;;2.83;1.60;;;21.10;31.70;21.50;94340.00;;;;10347743;28;46651;-63
2021/11/10 20:05:49;;;;;;;2.75;1.73;;;21.10;31.60;21.50;94335.00;;;;10348744;28;45185;-63
2021/11/10 20:10:51;;;;;;;2.67;1.65;;;21.10;31.50;21.50;94340.00;;;;10384195;28;45498;-63
2021/11/10 20:15:52;;;;;;;2.45;1.55;;;21.10;31.40;21.50;94334.00;;;;10358026;28;45373;-63
2021/11/10 20:20:53;;;;;;;2.83;2.00;;;21.00;31.40;21.50;94342.00;;;;10354688;28;45226;-63
2021/11/10 20:25:54;;;;;;;3.30;1.63;;;21.10;32.00;21.50;94357.00;;;;10393427;28;45320;-63
2021/11/10 20:30:55;;;;;;;3.47;1.80;;;21.10;31.20;21.50;94347.00;;;;10395449;28;46989;-64
2021/11/10 20:35:56;;;;;;;3.85;1.90;;;21.10;31.30;21.50;94355.00;;;;10395618;28;45363;-63
2021/11/10 20:40:57;;;;;;;2.65;1.70;;;21.10;31.20;21.50;94366.00;;;;10369272;28;47358;-63
2021/11/10 20:45:59;;;;;;;2.90;1.90;;;21.10;31.20;21.50;94362.00;;;;10355602;28;46895;-64
2021/11/10 20:51:01;;;;;;;2.55;1.70;;;21.10;31.10;21.50;94338.00;;;;10378801;28;45580;-64
2021/11/10 20:56:02;;;;;;;2.42;1.58;;;21.10;31.10;21.50;94349.00;;;;10395865;28;46677;-63
2021/11/10 21:01:04;;;;;;;2.60;1.52;;;21.10;31.20;21.50;94358.00;;;;10394248;28;46304;-63
2021/11/10 21:06:04;;;;;;;2.90;1.63;;;21.10;31.10;21.60;94327.00;;;;10355459;28;46509;-63
2021/11/10 21:11:05;;;;;;;3.25;1.77;;;21.10;31.10;21.60;94324.00;;;;10373264;28;45539;-64
2021/11/10 21:16:07;;;;;;;2.78;1.60;;;21.10;31.10;21.50;94319.00;;;;10349805;28;45166;-63
2021/11/10 21:21:08;;;;;;;2.83;1.50;;;21.10;31.10;21.50;94336.00;;;;10349080;28;45215;-63
2021/11/10 21:26:08;;;;;;;2.60;1.52;;;21.10;31.00;21.50;94330.00;;;;10352679;28;47788;-62
2021/11/10 21:31:09;;;;;;;2.83;1.77;;;21.10;30.90;21.50;94319.00;;;;10354627;28;45291;-62
2021/11/10 21:36:21;;;;;;;3.38;1.90;;;21.00;31.00;21.50;94327.00;;;;10351949;28;45432;-62
2021/11/10 21:41:22;;;;;;;1.63;1.13;;;21.00;30.80;21.50;94320.00;;;;10337024;28;48188;-62
2021/11/10 21:46:23;;;;;;;2.38;1.42;;;21.00;30.90;21.40;94329.00;;;;10351906;28;45191;-62
2021/11/10 21:51:25;;;;;;;2.30;1.50;;;21.00;30.80;21.40;94325.00;;;;10352338;28;47301;-63
2021/11/10 21:56:26;;;;;;;2.10;1.40;;;20.90;30.60;21.40;94327.00;;;;10352465;28;45458;-63
2021/11/10 22:01:26;;;;;;;2.42;1.60;;;20.90;30.60;21.40;94328.00;;;;10351846;28;47178;-63
2021/11/10 22:06:27;;;;;;;1.77;1.33;;;20.90;30.60;21.30;94303.00;;;;10335406;28;48230;-63
2021/11/10 22:11:28;;;;;;;2.58;1.67;;;20.90;31.30;21.30;94299.00;;;;10351102;28;45532;-63
2021/11/10 22:16:29;;;;;;;1.88;1.40;;;20.90;30.60;21.30;94320.00;;;;10334756;28;47480;-62
2021/11/10 22:21:31;;;;;;;2.92;1.60;;;20.80;30.50;21.20;94319.00;;;;10352050;28;45379;-64